Fredericktown, Missouri
Current Conditions -  °F | °C
As of 1:15 AM on Thursday 18 Dec 2014 (Local Time) from KFAM Reporting Station
Overcast Overcast  
Wind Chill: 29°   Ceiling: 2700
Heat Index: 34°   Visibility: 3mi
Dew Point: 28°   Wind: 6mph
Humidity: 81%   Direction: 270°W
Pressure: 30.25"   Gusts: NA
Location:  37.56°N, 90.29°W
Report Text: KFAM 180715Z AUTO 27005KT 3SM SCT020 BKN027 OVC050 01/M02 A3025 RMK AO1
Loading
Personal Weather Stations






























Interactive Weather Map New forecast layout! Learn more

10-Day Weather Forecast

Advertisements
Track Severe Weather on mobile